createdAt,value
2023-02-08T00:01:36.521Z,-9.73
2023-02-08T00:04:03.522Z,-9.72
2023-02-08T00:06:30.440Z,-9.72
2023-02-08T00:08:57.336Z,-9.73
2023-02-08T00:11:24.225Z,-9.76
2023-02-08T00:13:53.392Z,-9.83
2023-02-08T00:16:20.421Z,-9.88
2023-02-08T00:18:49.428Z,-9.91
2023-02-08T00:21:17.114Z,-9.93
2023-02-08T00:23:45.972Z,-9.96
2023-02-08T00:26:14.406Z,-10.01
2023-02-08T00:28:42.018Z,-10.05
2023-02-08T00:31:09.190Z,-10.09
2023-02-08T00:33:36.068Z,-10.15
2023-02-08T00:36:04.895Z,-10.20
2023-02-08T00:38:31.768Z,-10.22
2023-02-08T00:41:00.680Z,-10.23
2023-02-08T00:43:32.901Z,-10.23
2023-02-08T00:46:00.262Z,-10.22
2023-02-08T00:48:27.317Z,-10.25
2023-02-08T00:51:04.630Z,-10.26
2023-02-08T00:53:32.029Z,-10.29
2023-02-08T00:55:59.311Z,-10.33
2023-02-08T00:58:26.127Z,-10.38
2023-02-08T01:00:53.314Z,-10.45
2023-02-08T01:03:23.650Z,-10.54
2023-02-08T01:06:02.617Z,-10.64
2023-02-08T01:08:30.287Z,-10.73
2023-02-08T01:11:14.473Z,-10.77
2023-02-08T01:13:41.610Z,-10.83
2023-02-08T01:16:14.054Z,-10.87
2023-02-08T01:18:42.770Z,-10.91
2023-02-08T01:21:11.941Z,-10.95
2023-02-08T01:23:39.292Z,-11.01
2023-02-08T01:26:06.420Z,-11.03
2023-02-08T01:28:34.145Z,-11.06
2023-02-08T01:31:11.690Z,-11.05
2023-02-08T01:33:38.932Z,-11.06
2023-02-08T01:36:09.768Z,-11.08
2023-02-08T01:38:36.985Z,-11.09
2023-02-08T01:41:31.719Z,-11.11
2023-02-08T01:44:06.458Z,-11.13
2023-02-08T01:46:40.970Z,-11.13
2023-02-08T01:49:24.231Z,-11.12
2023-02-08T01:51:55.964Z,-11.13
2023-02-08T01:54:29.475Z,-11.12
2023-02-08T01:56:56.727Z,-11.11
2023-02-08T01:59:31.617Z,-11.10
2023-02-08T02:01:58.656Z,-11.11
2023-02-08T02:04:27.264Z,-11.13
2023-02-08T02:06:57.386Z,-11.15
2023-02-08T02:09:29.022Z,-11.19
2023-02-08T02:11:55.934Z,-11.21
2023-02-08T02:14:22.999Z,-11.24
2023-02-08T02:16:49.928Z,-11.26
2023-02-08T02:19:56.018Z,-11.28
2023-02-08T02:23:02.827Z,-11.32
2023-02-08T02:26:05.704Z,-11.36
2023-02-08T02:28:39.237Z,-11.38
2023-02-08T02:31:25.051Z,-11.41
2023-02-08T02:33:58.337Z,-11.45
2023-02-08T02:36:57.812Z,-11.49
2023-02-08T02:39:31.014Z,-11.51
2023-02-08T02:42:29.221Z,-11.52
2023-02-08T02:45:37.424Z,-11.56
2023-02-08T02:48:23.970Z,-11.59
2023-02-08T02:50:53.989Z,-11.62
2023-02-08T02:53:52.584Z,-11.64
2023-02-08T02:56:23.629Z,-11.66
2023-02-08T02:58:50.765Z,-11.67
2023-02-08T03:01:25.441Z,-11.68
2023-02-08T03:03:53.349Z,-11.70
2023-02-08T03:06:27.233Z,-11.71
2023-02-08T03:09:06.080Z,-11.73
2023-02-08T03:11:34.706Z,-11.76
2023-02-08T03:14:55.436Z,-11.75
2023-02-08T03:17:34.903Z,-11.74
2023-02-08T03:20:04.091Z,-11.75
2023-02-08T03:22:37.645Z,-11.75
2023-02-08T03:25:28.758Z,-11.78
2023-02-08T03:28:08.285Z,-11.80
2023-02-08T03:30:54.196Z,-11.83
2023-02-08T03:33:25.321Z,-11.85
2023-02-08T03:35:57.009Z,-11.86
2023-02-08T03:38:37.350Z,-11.85
2023-02-08T03:41:05.940Z,-11.87
2023-02-08T03:43:42.466Z,-11.90
2023-02-08T03:46:24.742Z,-11.91
2023-02-08T03:48:55.612Z,-11.93
2023-02-08T03:51:22.674Z,-11.93
2023-02-08T03:53:49.679Z,-11.95
2023-02-08T03:56:30.225Z,-11.95
2023-02-08T03:59:02.624Z,-11.96
2023-02-08T04:01:32.259Z,-11.98
2023-02-08T04:03:59.670Z,-11.99
2023-02-08T04:06:27.194Z,-12.00
2023-02-08T04:08:54.043Z,-12.01
2023-02-08T04:11:22.005Z,-12.02
2023-02-08T04:13:49.572Z,-12.05
2023-02-08T04:16:16.429Z,-12.06
2023-02-08T04:18:43.958Z,-12.07
2023-02-08T04:21:11.106Z,-12.06
2023-02-08T04:23:37.981Z,-12.08
2023-02-08T04:26:07.094Z,-12.11
2023-02-08T04:28:34.124Z,-12.14
2023-02-08T04:31:03.539Z,-12.15
2023-02-08T04:33:31.432Z,-12.17
2023-02-08T04:35:58.234Z,-12.19
2023-02-08T04:38:25.122Z,-12.21
2023-02-08T04:40:53.423Z,-12.23
2023-02-08T04:43:20.297Z,-12.24
2023-02-08T04:45:50.380Z,-12.27
2023-02-08T04:48:17.891Z,-12.27
2023-02-08T04:50:45.084Z,-12.29
2023-02-08T04:53:14.952Z,-12.31
2023-02-08T04:55:42.019Z,-12.34
2023-02-08T04:58:09.014Z,-12.37
2023-02-08T05:00:36.446Z,-12.39
2023-02-08T05:03:05.994Z,-12.43
2023-02-08T05:05:33.969Z,-12.44
2023-02-08T05:08:01.690Z,-12.49
2023-02-08T05:10:29.238Z,-12.52
2023-02-08T05:12:56.094Z,-12.54
2023-02-08T05:15:23.175Z,-12.56
2023-02-08T05:17:50.120Z,-12.59
2023-02-08T05:20:17.528Z,-12.60
2023-02-08T05:23:09.519Z,-12.58
2023-02-08T05:25:37.913Z,-12.52
2023-02-08T05:28:05.097Z,-12.50
2023-02-08T05:30:33.586Z,-12.49
2023-02-08T05:33:01.246Z,-12.44
2023-02-08T05:35:28.083Z,-12.40
2023-02-08T05:37:54.975Z,-12.38
2023-02-08T05:40:23.656Z,-12.34
2023-02-08T05:42:50.515Z,-12.27
2023-02-08T05:45:17.601Z,-12.21
2023-02-08T05:47:46.999Z,-12.16
2023-02-08T05:50:14.103Z,-12.10
2023-02-08T05:52:42.571Z,-12.06
2023-02-08T05:55:09.645Z,-11.99
2023-02-08T05:57:36.869Z,-11.92
2023-02-08T06:00:04.985Z,-11.85
2023-02-08T06:02:32.432Z,-11.78
2023-02-08T06:05:24.637Z,-11.69
2023-02-08T06:07:51.549Z,-11.62
2023-02-08T06:10:19.025Z,-11.56
2023-02-08T06:12:45.930Z,-11.49
2023-02-08T06:15:12.766Z,-11.43
2023-02-08T06:17:39.842Z,-11.39
2023-02-08T06:20:07.056Z,-11.32
2023-02-08T06:22:35.353Z,-11.27
2023-02-08T06:25:02.197Z,-11.24
2023-02-08T06:27:29.168Z,-11.22
2023-02-08T06:29:56.170Z,-11.16
2023-02-08T06:32:23.196Z,-11.11
2023-02-08T06:34:50.952Z,-11.07
2023-02-08T06:37:18.461Z,-11.03
2023-02-08T06:39:45.653Z,-10.98
2023-02-08T06:42:12.864Z,-10.97
2023-02-08T06:44:54.186Z,-10.95
2023-02-08T06:47:25.088Z,-10.90
2023-02-08T06:49:52.182Z,-10.86
2023-02-08T06:52:19.228Z,-10.84
2023-02-08T06:54:46.309Z,-10.80
2023-02-08T06:57:14.654Z,-10.76
2023-02-08T06:59:45.548Z,-10.71
2023-02-08T07:02:13.619Z,-10.68
2023-02-08T07:04:43.451Z,-10.64
2023-02-08T07:07:14.409Z,-10.62
2023-02-08T07:09:41.522Z,-10.59
2023-02-08T07:12:12.911Z,-10.55
2023-02-08T07:14:42.674Z,-10.51
2023-02-08T07:17:11.381Z,-10.43
2023-02-08T07:19:38.765Z,-10.34
2023-02-08T07:22:09.657Z,-10.25
2023-02-08T07:24:38.492Z,-10.17
2023-02-08T07:27:06.203Z,-10.08
2023-02-08T07:29:33.667Z,-9.99
2023-02-08T07:32:00.944Z,-9.90
2023-02-08T07:34:32.754Z,-9.81
2023-02-08T07:37:02.017Z,-9.75
2023-02-08T07:39:30.927Z,-9.68
2023-02-08T07:41:58.420Z,-9.56
2023-02-08T07:44:26.432Z,-9.43
2023-02-08T07:46:53.604Z,-9.36
2023-02-08T07:49:20.494Z,-9.29
2023-02-08T07:51:47.341Z,-9.20
2023-02-08T07:54:14.529Z,-9.10
2023-02-08T07:56:44.598Z,-9.02
2023-02-08T07:59:11.517Z,-8.91
2023-02-08T08:01:42.026Z,-8.80
2023-02-08T08:04:09.124Z,-8.68
2023-02-08T08:06:40.813Z,-8.57
2023-02-08T08:09:08.158Z,-8.43
2023-02-08T08:11:36.948Z,-8.28
2023-02-08T08:14:04.884Z,-8.18
2023-02-08T08:16:31.804Z,-8.17
2023-02-08T08:19:00.762Z,-8.18
2023-02-08T08:24:17.773Z,-8.00
2023-02-08T08:26:46.695Z,-7.96
2023-02-08T08:29:15.202Z,-7.88
2023-02-08T08:31:44.221Z,-7.85
2023-02-08T08:34:12.538Z,-7.79
2023-02-08T08:36:41.564Z,-7.72
2023-02-08T08:39:09.790Z,-7.65
2023-02-08T08:41:38.696Z,-7.56
2023-02-08T08:44:06.997Z,-7.52
2023-02-08T08:46:38.405Z,-7.51
2023-02-08T08:49:06.700Z,-7.47
2023-02-08T08:51:35.727Z,-7.41
2023-02-08T08:54:04.993Z,-7.39
2023-02-08T08:56:34.315Z,-7.37
2023-02-08T08:59:02.545Z,-7.32
2023-02-08T09:01:33.021Z,-7.26
2023-02-08T09:04:02.277Z,-7.17
2023-02-08T09:06:32.124Z,-7.09
2023-02-08T09:09:00.388Z,-7.01
2023-02-08T09:11:28.717Z,-6.95
2023-02-08T09:13:57.393Z,-6.92
2023-02-08T09:16:56.999Z,-6.86
2023-02-08T09:19:25.645Z,-6.76
2023-02-08T09:21:58.365Z,-6.64
2023-02-08T09:24:34.012Z,-6.53
2023-02-08T09:27:03.673Z,-6.46
2023-02-08T09:29:33.887Z,-6.41
2023-02-08T09:32:03.284Z,-6.32
2023-02-08T09:34:32.301Z,-6.27
2023-02-08T09:37:01.436Z,-6.22
2023-02-08T09:39:29.974Z,-6.13
2023-02-08T09:42:24.679Z,-6.03
2023-02-08T09:45:02.753Z,-5.95
2023-02-08T09:47:36.138Z,-5.89
2023-02-08T09:50:15.217Z,-5.82
2023-02-08T09:52:56.321Z,-5.76
2023-02-08T09:55:41.023Z,-5.75
2023-02-08T09:58:32.614Z,-5.71
2023-02-08T10:01:04.058Z,-5.64
2023-02-08T10:03:38.334Z,-5.58
2023-02-08T10:06:08.308Z,-5.51
2023-02-08T10:08:37.144Z,-5.44
2023-02-08T10:11:26.959Z,-5.36
2023-02-08T10:14:09.276Z,-5.28
2023-02-08T10:17:15.802Z,-5.23
2023-02-08T10:20:07.843Z,-5.20
2023-02-08T10:22:48.984Z,-5.16
2023-02-08T10:25:20.730Z,-5.13
2023-02-08T10:28:02.778Z,-5.13
2023-02-08T10:31:10.529Z,-5.06
2023-02-08T10:34:13.454Z,-4.95
2023-02-08T10:36:42.364Z,-4.87
2023-02-08T10:39:17.418Z,-4.81
2023-02-08T10:41:45.815Z,-4.75
2023-02-08T10:44:29.333Z,-4.72
2023-02-08T10:47:23.609Z,-4.71
2023-02-08T10:50:04.681Z,-4.71
2023-02-08T10:52:32.990Z,-4.68
2023-02-08T10:55:01.412Z,-4.60
2023-02-08T10:57:34.556Z,-4.51
2023-02-08T11:00:07.967Z,-4.49
2023-02-08T11:02:41.449Z,-4.48
2023-02-08T11:05:13.070Z,-4.49
2023-02-08T11:07:41.374Z,-4.55
2023-02-08T11:10:18.405Z,-4.62
2023-02-08T11:13:17.437Z,-4.61
2023-02-08T11:15:46.789Z,-4.60
2023-02-08T11:18:20.461Z,-4.60
2023-02-08T11:20:52.539Z,-4.54
2023-02-08T11:23:26.447Z,-4.53
2023-02-08T11:25:55.230Z,-4.51
2023-02-08T11:28:31.043Z,-4.51
2023-02-08T11:34:09.423Z,-4.39
2023-02-08T11:37:05.338Z,-4.36
2023-02-08T11:39:42.142Z,-4.34
2023-02-08T11:42:26.936Z,-4.34
2023-02-08T11:44:55.625Z,-4.42
2023-02-08T11:47:25.933Z,-4.50
2023-02-08T11:49:56.164Z,-4.57
2023-02-08T11:52:36.934Z,-4.65
2023-02-08T11:55:24.201Z,-4.72
2023-02-08T11:58:00.672Z,-4.84
2023-02-08T12:00:37.430Z,-4.95
2023-02-08T12:03:15.909Z,-4.95
2023-02-08T12:06:01.141Z,-4.98
2023-02-08T12:08:51.497Z,-5.03
2023-02-08T12:11:46.954Z,-5.07
2023-02-08T12:14:24.579Z,-5.12
2023-02-08T12:17:45.141Z,-5.14
2023-02-08T12:20:38.479Z,-5.13
2023-02-08T12:23:45.854Z,-5.12
2023-02-08T12:26:23.550Z,-5.14
2023-02-08T12:29:46.960Z,-5.16
2023-02-08T12:32:20.402Z,-5.14
2023-02-08T12:35:04.126Z,-5.13
2023-02-08T12:38:08.017Z,-5.13
2023-02-08T12:41:18.075Z,-5.13
2023-02-08T12:44:11.650Z,-5.16
2023-02-08T12:47:18.067Z,-5.18
2023-02-08T12:50:04.624Z,-5.18
2023-02-08T12:52:37.087Z,-5.19
2023-02-08T12:58:39.117Z,-5.22
2023-02-08T13:01:32.276Z,-5.22
2023-02-08T13:04:08.306Z,-5.23
2023-02-08T13:07:28.408Z,-5.25
2023-02-08T13:13:26.343Z,-5.23
2023-02-08T13:16:26.519Z,-5.22
2023-02-08T13:19:07.259Z,-5.24
2023-02-08T13:21:38.218Z,-5.26
2023-02-08T13:24:07.014Z,-5.27
2023-02-08T13:26:35.511Z,-5.29
2023-02-08T13:29:03.930Z,-5.33
2023-02-08T13:31:49.598Z,-5.37
2023-02-08T13:34:35.431Z,-5.39
2023-02-08T13:37:16.662Z,-5.41
2023-02-08T13:40:20.425Z,-5.42
2023-02-08T13:42:51.874Z,-5.46
2023-02-08T13:45:44.423Z,-5.49
2023-02-08T13:48:15.154Z,-5.54
2023-02-08T13:50:57.029Z,-5.60
2023-02-08T13:53:41.658Z,-5.66
2023-02-08T13:56:10.812Z,-5.72
2023-02-08T13:59:06.196Z,-5.76
2023-02-08T14:01:35.533Z,-5.78
2023-02-08T14:04:12.617Z,-5.80
2023-02-08T14:06:44.496Z,-5.84
2023-02-08T14:09:31.942Z,-5.88
2023-02-08T14:12:02.632Z,-5.92
2023-02-08T14:14:40.042Z,-5.96
2023-02-08T14:17:19.144Z,-6.01
2023-02-08T14:19:57.799Z,-6.04
2023-02-08T14:22:33.022Z,-6.09
2023-02-08T14:25:21.575Z,-6.11
2023-02-08T14:28:00.178Z,-6.13
2023-02-08T14:30:37.818Z,-6.15
2023-02-08T14:33:07.615Z,-6.18
2023-02-08T14:35:37.934Z,-6.24
2023-02-08T14:38:24.775Z,-6.32
2023-02-08T14:40:54.723Z,-6.39
2023-02-08T14:43:30.954Z,-6.46
2023-02-08T14:47:02.429Z,-6.52
2023-02-08T14:49:37.141Z,-6.61
2023-02-08T14:52:15.059Z,-6.66
2023-02-08T14:55:13.908Z,-6.74
2023-02-08T14:57:43.541Z,-6.85
2023-02-08T15:00:21.544Z,-6.97
2023-02-08T15:02:50.479Z,-7.12
2023-02-08T15:05:22.325Z,-7.24
2023-02-08T15:07:56.325Z,-7.33
2023-02-08T15:10:25.095Z,-7.42
2023-02-08T15:13:19.124Z,-7.49
2023-02-08T15:15:57.627Z,-7.56
2023-02-08T15:18:30.237Z,-7.63
2023-02-08T15:21:00.030Z,-7.71
2023-02-08T15:23:28.424Z,-7.76
2023-02-08T15:26:06.369Z,-7.80
2023-02-08T15:28:36.442Z,-7.80
2023-02-08T15:31:11.266Z,-7.81
2023-02-08T15:33:42.856Z,-7.85
2023-02-08T15:36:21.973Z,-7.91
2023-02-08T15:38:50.237Z,-7.93
2023-02-08T15:41:29.754Z,-7.94
2023-02-08T15:44:21.610Z,-7.97
2023-02-08T15:49:27.349Z,-8.06
2023-02-08T15:51:57.271Z,-8.13
2023-02-08T15:54:26.082Z,-8.18
2023-02-08T15:57:03.409Z,-8.23
2023-02-08T15:59:33.783Z,-8.24
2023-02-08T16:02:14.711Z,-8.26
2023-02-08T16:04:45.948Z,-8.31
2023-02-08T16:07:38.850Z,-8.38
2023-02-08T16:10:08.963Z,-8.47
2023-02-08T16:13:20.048Z,-8.51
2023-02-08T16:15:55.559Z,-8.58
2023-02-08T16:18:45.828Z,-8.62
2023-02-08T16:21:25.689Z,-8.66
2023-02-08T16:23:57.661Z,-8.67
2023-02-08T16:26:31.840Z,-8.69
2023-02-08T16:29:04.270Z,-8.70
2023-02-08T16:31:32.411Z,-8.70
2023-02-08T16:34:07.079Z,-8.71
2023-02-08T16:37:05.000Z,-8.73
2023-02-08T16:39:38.560Z,-8.77
2023-02-08T16:42:40.541Z,-8.80
2023-02-08T16:45:07.679Z,-8.82
2023-02-08T16:47:40.541Z,-8.82
2023-02-08T16:50:09.315Z,-8.84
2023-02-08T16:52:36.255Z,-8.85
2023-02-08T16:55:03.299Z,-8.87
2023-02-08T16:57:40.411Z,-8.90
2023-02-08T17:00:38.328Z,-8.94
2023-02-08T17:03:08.746Z,-8.98
2023-02-08T17:05:37.667Z,-9.03
2023-02-08T17:08:08.262Z,-9.08
2023-02-08T17:10:35.470Z,-9.15
2023-02-08T17:13:18.780Z,-9.21
2023-02-08T17:15:49.325Z,-9.26
2023-02-08T17:18:16.387Z,-9.29
2023-02-08T17:20:44.289Z,-9.32
2023-02-08T17:23:12.094Z,-9.37
2023-02-08T17:25:39.070Z,-9.42
2023-02-08T17:28:14.678Z,-9.45
2023-02-08T17:30:42.117Z,-9.47
2023-02-08T17:33:17.290Z,-9.51
2023-02-08T17:35:48.442Z,-9.55
2023-02-08T17:38:15.812Z,-9.59
2023-02-08T17:40:43.149Z,-9.64
2023-02-08T17:43:10.357Z,-9.69
2023-02-08T17:45:42.054Z,-9.72
2023-02-08T17:48:09.836Z,-9.75
2023-02-08T17:50:37.388Z,-9.80
2023-02-08T17:53:08.014Z,-9.87
2023-02-08T17:55:36.215Z,-9.91
2023-02-08T17:58:03.188Z,-9.94
2023-02-08T18:00:30.532Z,-10.00
2023-02-08T18:03:00.786Z,-10.04
2023-02-08T18:05:28.898Z,-10.11
2023-02-08T18:07:56.538Z,-10.19
2023-02-08T18:10:25.143Z,-10.26
2023-02-08T18:12:54.554Z,-10.31
2023-02-08T18:15:21.953Z,-10.38
2023-02-08T18:17:52.461Z,-10.41
2023-02-08T18:20:19.711Z,-10.41
2023-02-08T18:22:46.646Z,-10.43
2023-02-08T18:25:13.855Z,-10.45
2023-02-08T18:27:43.570Z,-10.49
2023-02-08T18:30:13.409Z,-10.52
2023-02-08T18:32:41.675Z,-10.54
2023-02-08T18:35:08.913Z,-10.52
2023-02-08T18:37:36.167Z,-10.50
2023-02-08T18:40:05.538Z,-10.48
2023-02-08T18:42:33.408Z,-10.47
2023-02-08T18:45:02.064Z,-10.47
2023-02-08T18:47:29.852Z,-10.48
2023-02-08T18:49:59.833Z,-10.48
2023-02-08T18:52:27.550Z,-10.51
2023-02-08T18:54:54.524Z,-10.54
2023-02-08T18:57:22.034Z,-10.57
2023-02-08T18:59:52.657Z,-10.62
2023-02-08T19:02:22.258Z,-10.61
2023-02-08T19:04:51.007Z,-10.62
2023-02-08T19:07:18.430Z,-10.61
2023-02-08T19:09:46.421Z,-10.62
2023-02-08T19:12:18.500Z,-10.64
2023-02-08T19:14:48.942Z,-10.67
2023-02-08T19:17:16.604Z,-10.70
2023-02-08T19:19:43.602Z,-10.71
2023-02-08T19:22:11.833Z,-10.70
2023-02-08T19:24:39.384Z,-10.67
2023-02-08T19:27:06.262Z,-10.65
2023-02-08T19:29:34.503Z,-10.65
2023-02-08T19:32:02.343Z,-10.64
2023-02-08T19:34:29.543Z,-10.64
2023-02-08T19:36:56.473Z,-10.68
2023-02-08T19:39:25.318Z,-10.73
2023-02-08T19:41:53.482Z,-10.80
2023-02-08T19:44:21.281Z,-10.88
2023-02-08T19:46:52.945Z,-10.93
2023-02-08T19:49:20.095Z,-10.99
2023-02-08T19:51:47.470Z,-11.04
2023-02-08T19:54:17.486Z,-11.07
2023-02-08T19:56:54.910Z,-11.11
2023-02-08T19:59:28.832Z,-11.13
2023-02-08T20:01:58.154Z,-11.14
2023-02-08T20:04:27.438Z,-11.18
2023-02-08T20:06:56.291Z,-11.22
2023-02-08T20:09:29.410Z,-11.27
2023-02-08T20:11:57.738Z,-11.33
2023-02-08T20:14:26.402Z,-11.37
2023-02-08T20:16:53.376Z,-11.42
2023-02-08T20:19:20.644Z,-11.46
2023-02-08T20:21:47.686Z,-11.50
2023-02-08T20:24:15.175Z,-11.54
2023-02-08T20:26:44.111Z,-11.57
2023-02-08T20:29:11.147Z,-11.59
2023-02-08T20:31:41.532Z,-11.62
2023-02-08T20:34:10.855Z,-11.65
2023-02-08T20:36:40.038Z,-11.66
2023-02-08T20:39:08.138Z,-11.68
2023-02-08T20:43:23.868Z,-11.67
2023-02-08T20:45:50.929Z,-11.68
2023-02-08T20:48:18.307Z,-11.73
2023-02-08T20:50:47.271Z,-11.78
2023-02-08T20:53:14.521Z,-11.80
2023-02-08T20:55:41.839Z,-11.80
2023-02-08T20:58:09.485Z,-11.79
2023-02-08T21:00:41.863Z,-11.78
2023-02-08T21:03:10.607Z,-11.79
2023-02-08T21:05:37.775Z,-11.80
2023-02-08T21:08:04.848Z,-11.84
2023-02-08T21:10:36.040Z,-11.89
2023-02-08T21:13:03.122Z,-11.90
2023-02-08T21:15:30.891Z,-11.93
2023-02-08T21:17:58.357Z,-11.98
2023-02-08T21:20:25.815Z,-12.02
2023-02-08T21:22:55.551Z,-12.01
2023-02-08T21:25:22.551Z,-11.97
2023-02-08T21:27:49.659Z,-11.93
2023-02-08T21:30:17.203Z,-11.87
2023-02-08T21:32:44.333Z,-11.79
2023-02-08T21:35:11.379Z,-11.74
2023-02-08T21:37:38.498Z,-11.71
2023-02-08T21:40:06.068Z,-11.70
2023-02-08T21:42:33.336Z,-11.70
2023-02-08T21:45:00.358Z,-11.71
2023-02-08T21:47:27.429Z,-11.70
2023-02-08T21:50:13.252Z,-11.69
2023-02-08T21:53:02.908Z,-11.67
2023-02-08T21:55:30.275Z,-11.68
2023-02-08T21:57:57.978Z,-11.70
2023-02-08T22:00:24.908Z,-11.74
2023-02-08T22:02:51.883Z,-11.76
2023-02-08T22:05:20.587Z,-11.76
2023-02-08T22:07:53.778Z,-11.77
2023-02-08T22:10:27.936Z,-11.77
2023-02-08T22:12:55.255Z,-11.76
2023-02-08T22:15:25.226Z,-11.77
2023-02-08T22:17:57.380Z,-11.78
2023-02-08T22:20:26.295Z,-11.78
2023-02-08T22:22:55.344Z,-11.79
2023-02-08T22:25:24.417Z,-11.79
2023-02-08T22:27:51.362Z,-11.85
2023-02-08T22:30:19.408Z,-11.92
2023-02-08T22:32:47.478Z,-11.97
2023-02-08T22:35:14.848Z,-12.00
2023-02-08T22:37:42.944Z,-12.01
2023-02-08T22:40:11.615Z,-12.03
2023-02-08T22:42:40.185Z,-12.03
2023-02-08T22:45:07.628Z,-12.06
2023-02-08T22:47:35.332Z,-12.12
2023-02-08T22:50:02.424Z,-12.19
2023-02-08T22:52:30.201Z,-12.22
2023-02-08T22:55:01.849Z,-12.28
2023-02-08T22:57:32.931Z,-12.41
2023-02-08T23:00:00.382Z,-12.48
2023-02-08T23:02:27.251Z,-12.48
2023-02-08T23:04:55.087Z,-12.44
2023-02-08T23:07:22.474Z,-12.38
2023-02-08T23:09:53.185Z,-12.37
2023-02-08T23:12:20.133Z,-12.42
2023-02-08T23:14:48.900Z,-12.52
2023-02-08T23:17:16.166Z,-12.59
2023-02-08T23:19:43.013Z,-12.66
2023-02-08T23:22:12.813Z,-12.71
2023-02-08T23:24:39.817Z,-12.85
2023-02-08T23:27:07.727Z,-13.02
2023-02-08T23:29:34.596Z,-13.15
2023-02-08T23:32:02.160Z,-13.26
2023-02-08T23:34:29.513Z,-13.30
2023-02-08T23:36:56.436Z,-13.28
2023-02-08T23:39:23.528Z,-13.26
2023-02-08T23:41:50.961Z,-13.24
2023-02-08T23:44:18.304Z,-13.21
2023-02-08T23:46:45.265Z,-13.20
2023-02-08T23:49:12.149Z,-13.18
2023-02-08T23:51:40.061Z,-13.17
2023-02-08T23:54:07.193Z,-13.17
2023-02-08T23:56:34.535Z,-13.17
2023-02-08T23:59:02.142Z,-13.18
